Time;durP1;ratioP1;P1;durP2;ratioP2;P2;SDS_P1;SDS_P2;PMS_P1;PMS_P2;Temp;Humidity;BMP_temperature;BMP_pressure;BME280_temperature;BME280_humidity;BME280_pressure;Samples;Min_cycle;Max_cycle;Signal;HPM_P1;HPM_P2
2023/07/14 00:00:23;;;;;;;1.90;1.70;;;17.00;1.00;;;;;;5004874;28;20186;-80
2023/07/14 00:02:50;;;;;;;3.00;2.00;;;17.10;1.00;;;;;;5094460;22;20310;-78
2023/07/14 00:05:23;;;;;;;2.33;1.73;;;17.10;1.00;;;;;;5115191;28;20298;-79
2023/07/14 00:07:51;;;;;;;3.23;2.00;;;17.20;1.00;;;;;;5116708;27;20163;-78
2023/07/14 00:10:22;;;;;;;3.37;1.90;;;17.30;99.90;;;;;;5115697;28;20205;-78
2023/07/14 00:12:49;;;;;;;2.17;1.93;;;17.40;99.90;;;;;;5115099;28;20188;-79
2023/07/14 00:15:16;;;;;;;3.30;2.03;;;17.30;99.90;;;;;;5116138;28;20171;-78
2023/07/14 00:17:43;;;;;;;2.30;1.90;;;17.30;99.90;;;;;;5101003;28;20183;-79
2023/07/14 00:20:22;;;;;;;2.27;2.00;;;17.30;99.90;;;;;;5093006;28;20173;-78
2023/07/14 00:22:49;;;;;;;2.30;1.80;;;17.10;99.90;;;;;;5094876;28;20199;-78
2023/07/14 00:25:15;;;;;;;2.10;1.90;;;17.00;1.00;;;;;;5095953;28;20196;-78
2023/07/14 00:27:42;;;;;;;1.90;1.73;;;16.90;1.00;;;;;;5088050;28;20195;-79
2023/07/14 00:30:16;;;;;;;2.80;2.00;;;16.90;1.00;;;;;;5104402;28;20209;-79
2023/07/14 00:32:42;;;;;;;2.97;2.10;;;16.60;1.00;;;;;;5094715;28;20271;-78
2023/07/14 00:35:21;;;;;;;1.90;1.70;;;16.30;1.00;;;;;;5096086;28;20198;-78
2023/07/14 00:37:48;;;;;;;2.73;1.70;;;16.10;99.90;;;;;;5096442;28;20165;-78
2023/07/14 00:40:36;;;;;;;2.13;1.93;;;16.00;1.00;;;;;;5094434;28;20176;-79
2023/07/14 00:43:02;;;;;;;2.80;2.03;;;15.90;1.00;;;;;;5095023;28;20192;-80
2023/07/14 00:45:30;;;;;;;2.77;1.97;;;15.70;24.90;;;;;;5098337;28;20216;-80
2023/07/14 00:48:03;;;;;;;3.07;2.10;;;15.70;1.00;;;;;;5097443;28;20175;-80
2023/07/14 00:50:41;;;;;;;2.70;2.07;;;15.50;1.00;;;;;;5096804;28;20192;-80
2023/07/14 00:53:19;;;;;;;2.23;2.03;;;15.50;99.90;;;;;;5098406;28;20192;-81
2023/07/14 00:55:54;;;;;;;2.50;2.10;;;15.60;27.70;;;;;;5097734;28;20176;-80
2023/07/14 00:58:23;;;;;;;2.73;2.00;;;15.60;99.90;;;;;;5098637;28;20168;-81
2023/07/14 01:01:02;;;;;;;2.53;1.83;;;15.50;1.00;;;;;;5096953;28;20181;-80
2023/07/14 01:03:29;;;;;;;2.77;2.10;;;15.40;10.50;;;;;;5097702;28;20212;-80
2023/07/14 01:05:56;;;;;;;2.70;1.93;;;15.20;1.00;;;;;;5097604;28;20203;-80
2023/07/14 01:08:22;;;;;;;2.57;1.90;;;15.20;99.90;;;;;;5097621;28;20253;-80
2023/07/14 01:10:48;;;;;;;3.00;2.03;;;15.30;1.00;;;;;;5097984;28;20172;-80
2023/07/14 01:13:14;;;;;;;2.67;2.03;;;15.40;99.90;;;;;;5097421;28;20678;-81
2023/07/14 01:15:40;;;;;;;2.33;1.97;;;15.40;99.90;;;;;;5097806;28;20200;-81
2023/07/14 01:18:08;;;;;;;2.97;2.17;;;15.40;1.00;;;;;;5097860;28;20185;-80
2023/07/14 01:20:37;;;;;;;3.03;2.20;;;15.30;1.00;;;;;;5095461;28;20183;-81
2023/07/14 01:23:38;;;;;;;2.27;2.07;;;15.30;8.60;;;;;;5096565;28;20305;-81
2023/07/14 01:26:13;;;;;;;4.13;2.20;;;15.40;99.90;;;;;;5093808;28;20219;-80
2023/07/14 01:28:39;;;;;;;3.00;1.90;;;15.60;1.00;;;;;;5096980;28;20221;-81
2023/07/14 01:31:11;;;;;;;2.50;1.90;;;15.70;1.00;;;;;;5097614;28;20173;-79
2023/07/14 01:33:36;;;;;;;2.10;1.90;;;15.80;98.00;;;;;;5098614;28;20157;-80
2023/07/14 01:36:03;;;;;;;4.13;2.20;;;15.70;99.90;;;;;;5097164;28;20183;-80
2023/07/14 01:38:29;;;;;;;3.00;1.90;;;15.60;99.90;;;;;;5095850;28;20208;-81
2023/07/14 01:41:00;;;;;;;2.63;1.80;;;15.40;1.00;;;;;;5091047;28;20176;-80
2023/07/14 01:43:26;;;;;;;2.17;1.90;;;15.30;1.00;;;;;;5097704;28;20622;-80
2023/07/14 01:46:06;;;;;;;2.57;1.70;;;15.10;1.00;;;;;;5098388;28;20647;-80
2023/07/14 01:48:37;;;;;;;2.33;1.90;;;15.00;77.80;;;;;;5098340;28;20164;-80
2023/07/14 01:51:08;;;;;;;2.00;1.80;;;15.00;99.90;;;;;;5097944;28;20179;-81
2023/07/14 01:53:51;;;;;;;3.00;2.03;;;15.10;99.90;;;;;;5097645;28;20165;-80
2023/07/14 01:56:19;;;;;;;3.97;2.50;;;15.20;99.90;;;;;;5097288;28;20614;-80
2023/07/14 01:59:00;;;;;;;3.53;2.10;;;15.00;1.00;;;;;;5096424;28;20758;-80
2023/07/14 02:01:29;;;;;;;2.57;1.73;;;15.10;1.00;;;;;;5096609;28;20192;-80
2023/07/14 02:03:56;;;;;;;3.30;1.83;;;15.00;1.00;;;;;;5098647;28;20225;-80
2023/07/14 02:06:23;;;;;;;2.47;2.00;;;14.60;1.00;;;;;;5097669;28;20200;-80
2023/07/14 02:08:50;;;;;;;4.17;2.30;;;14.40;1.00;;;;;;5097112;28;20179;-80
2023/07/14 02:11:18;;;;;;;2.30;2.10;;;14.30;99.90;;;;;;5096820;28;20195;-80
2023/07/14 02:13:44;;;;;;;2.33;2.00;;;14.40;1.00;;;;;;5098484;28;20544;-80
2023/07/14 02:16:14;;;;;;;2.60;2.00;;;14.50;1.00;;;;;;5097375;28;20195;-80
2023/07/14 02:18:42;;;;;;;2.73;2.20;;;14.70;99.90;;;;;;5097586;28;20194;-80
2023/07/14 02:21:10;;;;;;;2.83;2.00;;;14.80;99.90;;;;;;5094684;28;20172;-80
2023/07/14 02:23:38;;;;;;;3.50;2.27;;;14.80;1.00;;;;;;5097307;28;20179;-80
2023/07/14 02:26:09;;;;;;;3.00;1.97;;;14.80;1.00;;;;;;5097494;28;20195;-79
2023/07/14 02:28:35;;;;;;;2.23;2.00;;;14.80;1.00;;;;;;5097269;28;20177;-80
2023/07/14 02:31:18;;;;;;;3.43;2.00;;;14.90;1.00;;;;;;5097128;28;20261;-80
2023/07/14 02:33:47;;;;;;;2.10;1.90;;;14.80;99.90;;;;;;5097410;28;20192;-80
2023/07/14 02:36:20;;;;;;;2.43;1.87;;;14.90;1.00;;;;;;5097175;28;20176;-80
2023/07/14 02:38:46;;;;;;;1.87;1.77;;;14.70;1.00;;;;;;5097939;28;20177;-81
2023/07/14 02:41:21;;;;;;;2.80;2.07;;;14.70;1.00;;;;;;5088290;28;20188;-79
2023/07/14 02:43:54;;;;;;;3.67;2.07;;;14.50;99.90;;;;;;5076818;28;20176;-80
2023/07/14 02:46:41;;;;;;;3.47;1.83;;;14.60;99.90;;;;;;5077513;28;20208;-80
2023/07/14 02:49:07;;;;;;;2.37;1.97;;;14.60;99.90;;;;;;5077760;28;20154;-80
2023/07/14 02:51:33;;;;;;;2.20;2.00;;;14.50;1.00;;;;;;5076941;28;20275;-81
2023/07/14 02:53:58;;;;;;;3.43;2.20;;;14.60;97.50;;;;;;5076702;28;20180;-80
2023/07/14 02:56:24;;;;;;;3.53;2.07;;;14.80;1.00;;;;;;5076844;28;20660;-81
2023/07/14 02:58:49;;;;;;;2.37;2.17;;;15.00;99.90;;;;;;5077454;28;20230;-80
2023/07/14 03:01:17;;;;;;;4.30;2.17;;;14.90;1.00;;;;;;5076625;28;20216;-80
2023/07/14 03:03:45;;;;;;;2.17;1.93;;;14.80;1.00;;;;;;5077660;28;20708;-80
2023/07/14 03:06:13;;;;;;;2.50;2.17;;;14.70;1.00;;;;;;5076571;28;20260;-80
2023/07/14 03:08:39;;;;;;;2.57;2.20;;;14.50;99.90;;;;;;5076936;28;20240;-80
2023/07/14 03:11:04;;;;;;;2.67;2.03;;;14.50;99.90;;;;;;5077642;28;20239;-80
2023/07/14 03:13:30;;;;;;;2.33;1.80;;;14.30;99.90;;;;;;5077211;28;20179;-80
2023/07/14 03:15:57;;;;;;;3.00;1.90;;;14.20;1.00;;;;;;5077514;28;20185;-80
2023/07/14 03:18:23;;;;;;;2.13;1.93;;;14.00;1.00;;;;;;5077572;28;20173;-80
2023/07/14 03:20:54;;;;;;;3.00;1.80;;;14.20;99.90;;;;;;5076553;28;20203;-80
2023/07/14 03:23:20;;;;;;;2.27;1.87;;;13.90;1.00;;;;;;5077108;28;20197;-80
2023/07/14 03:25:47;;;;;;;2.37;2.10;;;13.60;1.00;;;;;;5076878;28;20273;-80
2023/07/14 03:28:13;;;;;;;2.37;1.93;;;13.60;1.00;;;;;;5077935;28;20165;-80
2023/07/14 03:30:42;;;;;;;2.20;2.00;;;13.60;9.80;;;;;;5076391;28;20177;-79
2023/07/14 03:33:08;;;;;;;2.00;1.80;;;13.50;1.00;;;;;;5078068;28;20185;-80
2023/07/14 03:35:34;;;;;;;2.50;2.07;;;13.50;99.90;;;;;;5076945;28;20173;-80
2023/07/14 03:38:00;;;;;;;3.30;1.90;;;13.60;99.90;;;;;;5078047;28;20234;-80
2023/07/14 03:40:26;;;;;;;2.73;2.00;;;13.60;99.90;;;;;;5076878;28;20180;-79
2023/07/14 03:42:51;;;;;;;2.10;1.90;;;13.80;1.00;;;;;;5077559;28;20656;-80
2023/07/14 03:45:17;;;;;;;2.57;1.90;;;13.90;99.90;;;;;;5077462;28;20208;-80
2023/07/14 03:47:43;;;;;;;2.20;1.93;;;13.90;1.00;;;;;;5076925;28;20535;-79
2023/07/14 03:50:11;;;;;;;4.20;2.17;;;13.90;1.00;;;;;;5077727;28;20173;-79
2023/07/14 03:52:37;;;;;;;3.53;1.97;;;14.00;1.00;;;;;;5076700;28;20231;-80
2023/07/14 03:55:03;;;;;;;3.97;2.53;;;14.00;1.00;;;;;;5077908;28;20173;-80
2023/07/14 03:57:28;;;;;;;2.33;1.90;;;14.10;22.20;;;;;;5077615;28;20613;-79
2023/07/14 03:59:54;;;;;;;2.57;2.03;;;14.10;1.00;;;;;;5076937;28;20671;-79
2023/07/14 04:02:19;;;;;;;2.40;2.20;;;14.30;99.90;;;;;;5081626;28;20694;-81
2023/07/14 04:04:45;;;;;;;2.43;2.03;;;14.40;1.00;;;;;;5079312;28;20615;-81
2023/07/14 04:07:11;;;;;;;2.37;2.17;;;14.50;1.00;;;;;;5078249;28;20173;-81
2023/07/14 04:09:37;;;;;;;2.90;2.50;;;14.20;1.00;;;;;;5078687;28;20177;-80
2023/07/14 04:12:02;;;;;;;3.50;2.43;;;13.90;99.90;;;;;;5080345;28;20185;-81
2023/07/14 04:14:28;;;;;;;2.60;2.40;;;13.90;1.00;;;;;;5078697;28;20173;-81
2023/07/14 04:16:54;;;;;;;2.53;2.33;;;13.90;1.00;;;;;;5080950;28;20227;-81
2023/07/14 04:19:19;;;;;;;2.50;2.20;;;14.10;1.00;;;;;;5081151;28;20264;-81
2023/07/14 04:21:46;;;;;;;4.27;2.10;;;14.10;99.90;;;;;;5081639;28;20595;-81
2023/07/14 04:24:12;;;;;;;2.67;2.30;;;14.00;1.00;;;;;;5082478;28;20581;-81
2023/07/14 04:26:37;;;;;;;2.33;2.00;;;13.90;1.00;;;;;;5084075;28;20292;-81
2023/07/14 04:29:05;;;;;;;2.67;2.13;;;13.90;1.00;;;;;;5081123;28;20184;-81
2023/07/14 04:31:30;;;;;;;3.00;2.17;;;13.90;1.00;;;;;;5080812;28;20197;-81
2023/07/14 04:33:56;;;;;;;2.97;2.00;;;13.80;1.00;;;;;;5081610;28;20176;-81
2023/07/14 04:36:22;;;;;;;3.40;2.43;;;13.80;99.90;;;;;;5083633;28;20181;-81
2023/07/14 04:39:05;;;;;;;2.73;2.17;;;13.90;1.00;;;;;;5081578;28;20203;-81
2023/07/14 04:41:32;;;;;;;3.30;2.20;;;14.00;1.00;;;;;;5081312;28;20672;-81
2023/07/14 04:43:57;;;;;;;2.80;2.23;;;14.10;1.00;;;;;;5079671;28;20222;-81
2023/07/14 04:46:23;;;;;;;3.00;2.43;;;14.10;56.10;;;;;;5078351;28;20208;-81
2023/07/14 04:48:50;;;;;;;3.17;2.20;;;14.00;1.00;;;;;;5075808;28;20177;-81
2023/07/14 04:51:16;;;;;;;3.07;2.40;;;14.00;1.00;;;;;;5076645;28;20188;-81
2023/07/14 04:53:41;;;;;;;3.40;2.30;;;14.10;1.00;;;;;;5077420;28;20178;-80
2023/07/14 04:56:07;;;;;;;3.27;2.63;;;14.10;99.90;;;;;;5077382;28;20180;-80
2023/07/14 04:58:32;;;;;;;2.30;2.10;;;14.10;1.00;;;;;;5079070;28;20278;-81
2023/07/14 05:00:58;;;;;;;2.13;1.90;;;14.20;1.00;;;;;;5095515;28;20180;-81
2023/07/14 05:03:25;;;;;;;3.50;2.50;;;14.20;1.00;;;;;;5098087;28;20319;-81
2023/07/14 05:05:51;;;;;;;2.87;2.50;;;14.30;1.00;;;;;;5095853;28;20242;-81
2023/07/14 05:08:16;;;;;;;2.70;2.50;;;14.40;1.00;;;;;;5098303;28;20562;-81
2023/07/14 05:10:42;;;;;;;2.73;2.50;;;14.60;99.90;;;;;;5095436;28;20188;-81
2023/07/14 05:13:07;;;;;;;2.80;2.60;;;14.60;1.00;;;;;;5098010;28;20196;-85
2023/07/14 05:15:33;;;;;;;3.27;2.93;;;14.70;1.00;;;;;;5096107;28;20176;-80
2023/07/14 05:17:59;;;;;;;3.87;3.07;;;14.80;1.00;;;;;;5097724;28;20171;-81
2023/07/14 05:20:25;;;;;;;3.87;3.00;;;14.80;1.00;;;;;;5090617;28;20269;-80
2023/07/14 05:22:52;;;;;;;4.60;3.00;;;14.80;1.00;;;;;;5077167;28;20220;-81
2023/07/14 05:25:19;;;;;;;3.77;2.87;;;14.90;1.00;;;;;;5081959;28;20196;-82
2023/07/14 05:27:45;;;;;;;3.50;2.87;;;14.90;1.00;;;;;;5081531;28;20165;-80
2023/07/14 05:30:14;;;;;;;4.60;3.23;;;14.90;1.00;;;;;;5081770;28;20173;-79
2023/07/14 05:32:42;;;;;;;3.50;3.20;;;15.00;85.90;;;;;;5079162;28;20196;-82
2023/07/14 05:35:08;;;;;;;3.57;2.90;;;15.00;99.90;;;;;;5074983;28;20177;-81
2023/07/14 05:37:34;;;;;;;3.67;3.13;;;15.00;99.90;;;;;;5076617;28;20180;-82
2023/07/14 05:39:59;;;;;;;4.00;3.10;;;15.10;99.90;;;;;;5084856;28;20169;-82
2023/07/14 05:42:25;;;;;;;4.20;3.07;;;15.30;1.00;;;;;;5094730;28;20224;-82
2023/07/14 05:44:50;;;;;;;4.63;3.03;;;15.20;1.00;;;;;;5096820;28;20196;-83
2023/07/14 05:47:16;;;;;;;5.00;3.03;;;15.30;1.00;;;;;;5097165;28;20255;-82
2023/07/14 05:49:41;;;;;;;3.77;2.93;;;15.40;1.00;;;;;;5093430;28;20169;-82
2023/07/14 05:52:12;;;;;;;5.77;2.30;;;15.50;99.90;;;;;;5096132;28;20188;-80
2023/07/14 05:54:37;;;;;;;2.93;2.10;;;15.60;1.00;;;;;;5095071;28;20721;-80
2023/07/14 05:57:03;;;;;;;2.93;2.47;;;16.10;1.00;;;;;;5096915;28;20215;-81
2023/07/14 05:59:29;;;;;;;3.90;2.00;;;16.60;1.00;;;;;;5093924;28;20176;-82
2023/07/14 06:01:54;;;;;;;2.53;1.83;;;17.00;99.90;;;;;;5107158;22;20203;-77
2023/07/14 06:04:20;;;;;;;4.60;2.50;;;17.30;1.00;;;;;;5074278;28;20599;-75
2023/07/14 06:06:46;;;;;;;2.70;2.10;;;17.60;1.00;;;;;;5063580;28;20212;-78
2023/07/14 06:09:14;;;;;;;3.73;3.10;;;17.60;1.00;;;;;;5059473;28;20188;-77
2023/07/14 06:11:40;;;;;;;5.23;2.57;;;17.40;16.30;;;;;;5074947;28;20225;-77
2023/07/14 06:14:06;;;;;;;3.03;2.70;;;17.20;99.90;;;;;;5076069;28;20173;-78
2023/07/14 06:16:32;;;;;;;3.67;2.37;;;17.10;99.90;;;;;;5056528;28;20188;-77
2023/07/14 06:18:57;;;;;;;4.70;2.33;;;17.00;1.00;;;;;;5051449;28;20177;-77
2023/07/14 06:21:23;;;;;;;3.37;2.40;;;17.20;1.00;;;;;;5034931;28;20178;-78
2023/07/14 06:23:49;;;;;;;4.00;2.73;;;17.30;1.00;;;;;;5035300;28;20240;-78
2023/07/14 06:26:15;;;;;;;3.90;2.60;;;17.30;1.00;;;;;;5053404;28;20201;-78
2023/07/14 06:28:42;;;;;;;6.03;2.37;;;17.30;1.00;;;;;;5035158;28;20200;-77
2023/07/14 06:31:09;;;;;;;3.10;2.70;;;17.20;99.90;;;;;;5034678;28;20180;-77
2023/07/14 06:33:35;;;;;;;4.83;2.47;;;17.20;1.00;;;;;;5039383;28;20192;-77
2023/07/14 06:36:01;;;;;;;4.00;2.57;;;17.20;99.90;;;;;;5055225;28;20621;-76
2023/07/14 06:38:28;;;;;;;2.77;2.13;;;17.20;99.90;;;;;;5054998;28;20188;-81
2023/07/14 06:40:56;;;;;;;2.97;2.10;;;17.30;99.90;;;;;;5072505;28;20251;-76
2023/07/14 06:43:22;;;;;;;4.70;2.57;;;17.60;1.00;;;;;;5072502;28;20279;-76
2023/07/14 06:45:48;;;;;;;4.43;2.80;;;17.80;1.00;;;;;;5072575;28;20283;-76
2023/07/14 06:48:13;;;;;;;4.47;2.13;;;18.00;1.00;;;;;;5055120;28;20172;-75
2023/07/14 06:50:39;;;;;;;3.73;2.60;;;18.00;99.90;;;;;;5072317;28;20176;-76
2023/07/14 06:53:05;;;;;;;2.23;2.03;;;18.30;26.40;;;;;;5054646;28;20217;-77
2023/07/14 06:55:31;;;;;;;3.37;2.20;;;18.40;1.00;;;;;;5053509;28;20263;-76
2023/07/14 06:57:56;;;;;;;2.57;2.30;;;18.50;33.40;;;;;;5072453;28;20707;-76
2023/07/14 07:00:22;;;;;;;2.63;2.20;;;18.70;1.00;;;;;;5072260;28;20204;-77
2023/07/14 07:02:48;;;;;;;2.70;2.10;;;18.80;99.90;;;;;;5072517;28;20224;-77
2023/07/14 07:05:14;;;;;;;3.73;2.10;;;18.90;99.90;;;;;;5054753;28;20200;-77
2023/07/14 07:07:39;;;;;;;2.40;2.20;;;19.00;1.00;;;;;;5072637;28;20264;-76
2023/07/14 07:10:07;;;;;;;2.23;1.80;;;19.10;1.00;;;;;;5072131;28;20203;-76
2023/07/14 07:12:33;;;;;;;4.07;2.20;;;19.20;1.00;;;;;;5072600;28;20234;-78
2023/07/14 07:14:58;;;;;;;2.50;1.77;;;19.40;99.90;;;;;;5054566;28;20176;-77
2023/07/14 07:17:24;;;;;;;2.27;1.83;;;19.60;1.00;;;;;;5072471;28;20180;-78
2023/07/14 07:19:49;;;;;;;4.87;2.00;;;19.70;1.00;;;;;;5054268;28;20173;-78
2023/07/14 07:22:15;;;;;;;2.70;2.03;;;19.70;99.90;;;;;;5054193;28;20205;-78
2023/07/14 07:24:40;;;;;;;1.73;1.63;;;19.90;99.90;;;;;;5054538;28;20177;-78
2023/07/14 07:27:06;;;;;;;3.67;1.80;;;19.90;1.00;;;;;;5072978;28;20716;-78
2023/07/14 07:29:32;;;;;;;3.22;1.70;;;20.00;1.00;;;;;;5072830;28;20177;-77
2023/07/14 07:31:57;;;;;;;1.73;1.40;;;20.10;99.90;;;;;;5054301;28;20197;-78
2023/07/14 07:34:23;;;;;;;2.15;1.70;;;20.20;99.90;;;;;;5054705;28;20204;-78
2023/07/14 07:36:49;;;;;;;4.57;2.00;;;20.20;99.90;;;;;;5072739;28;20181;-77
2023/07/14 07:39:15;;;;;;;3.60;1.80;;;20.40;99.90;;;;;;5054535;28;20181;-78
2023/07/14 07:41:40;;;;;;;2.05;1.50;;;20.60;99.90;;;;;;5071678;28;20654;-77
2023/07/14 07:44:08;;;;;;;3.45;1.55;;;20.80;99.90;;;;;;5054927;28;20180;-78
2023/07/14 07:46:34;;;;;;;2.00;1.45;;;20.90;99.90;;;;;;5072259;28;20197;-78
2023/07/14 07:49:00;;;;;;;2.20;1.63;;;21.10;99.90;;;;;;5072346;28;20177;-78
2023/07/14 07:51:26;;;;;;;3.20;1.60;;;21.20;99.90;;;;;;5071944;28;20176;-78
2023/07/14 07:53:51;;;;;;;3.10;1.60;;;21.30;59.90;;;;;;5074670;28;20511;-78
2023/07/14 07:56:17;;;;;;;4.15;1.55;;;21.30;1.00;;;;;;5076283;28;20239;-77
2023/07/14 07:58:43;;;;;;;3.17;1.75;;;21.40;1.00;;;;;;5076151;28;20655;-77
2023/07/14 08:01:17;;;;;;;4.05;1.50;;;21.50;1.00;;;;;;5075643;28;20632;-78
2023/07/14 08:03:43;;;;;;;3.97;1.92;;;21.80;1.00;;;;;;5076260;28;20204;-78
2023/07/14 08:06:08;;;;;;;3.70;1.58;;;21.90;1.00;;;;;;5058165;28;20200;-77
2023/07/14 08:08:34;;;;;;;4.03;1.73;;;21.90;1.00;;;;;;5058368;28;20169;-77
2023/07/14 08:11:00;;;;;;;1.80;1.30;;;21.90;1.00;;;;;;5075780;28;20180;-78
2023/07/14 08:13:28;;;;;;;4.65;1.58;;;21.80;1.00;;;;;;5057959;28;20245;-78
2023/07/14 08:15:55;;;;;;;2.13;1.38;;;21.80;1.00;;;;;;5058166;28;20173;-77
2023/07/14 08:18:22;;;;;;;3.70;1.48;;;22.00;1.00;;;;;;5075894;28;20173;-75
2023/07/14 08:20:49;;;;;;;2.15;1.20;;;22.10;1.00;;;;;;5074684;28;20180;-78
2023/07/14 08:23:18;;;;;;;2.90;1.40;;;22.20;1.00;;;;;;5075694;28;20197;-78
2023/07/14 08:25:51;;;;;;;1.88;1.30;;;22.30;1.00;;;;;;5076108;28;20203;-77
2023/07/14 08:28:16;;;;;;;3.45;1.58;;;22.40;1.00;;;;;;5075802;28;20157;-77
2023/07/14 08:30:46;;;;;;;1.58;1.20;;;22.50;1.00;;;;;;5045289;28;20170;-77
2023/07/14 08:33:11;;;;;;;2.35;1.30;;;22.50;99.90;;;;;;5038595;28;20193;-80
2023/07/14 08:35:37;;;;;;;3.22;1.40;;;22.60;99.90;;;;;;5039359;28;20272;-78
2023/07/14 08:38:03;;;;;;;1.55;1.35;;;22.60;99.90;;;;;;5037873;28;20178;-78
2023/07/14 08:40:36;;;;;;;1.88;1.20;;;22.70;99.90;;;;;;5055326;28;20177;-78
2023/07/14 08:43:29;;;;;;;3.13;1.45;;;22.70;99.90;;;;;;5054808;28;20243;-75
2023/07/14 08:46:03;;;;;;;2.22;1.30;;;22.80;99.90;;;;;;5037976;28;20189;-78
2023/07/14 08:48:45;;;;;;;2.58;1.30;;;22.80;99.90;;;;;;5038313;28;20590;-78
2023/07/14 08:51:18;;;;;;;4.15;1.38;;;22.60;99.90;;;;;;5055527;28;20161;-77
2023/07/14 08:53:57;;;;;;;1.95;1.20;;;22.70;99.90;;;;;;5055641;28;20210;-77
2023/07/14 08:56:24;;;;;;;3.22;1.40;;;22.70;99.90;;;;;;5055167;28;20204;-78
2023/07/14 08:58:52;;;;;;;1.40;1.30;;;22.70;99.90;;;;;;5037177;28;20178;-78
2023/07/14 09:01:26;;;;;;;3.00;1.58;;;22.70;99.90;;;;;;5036800;28;20177;-77
2023/07/14 09:03:56;;;;;;;2.83;1.40;;;22.80;99.90;;;;;;5036124;28;20250;-77
2023/07/14 09:06:33;;;;;;;1.48;1.20;;;22.80;99.90;;;;;;5036942;28;20198;-78
2023/07/14 09:08:59;;;;;;;3.22;1.20;;;22.90;99.90;;;;;;5054872;28;20682;-77
2023/07/14 09:11:42;;;;;;;2.75;1.20;;;23.00;99.90;;;;;;5038778;28;20185;-78
2023/07/14 09:14:40;;;;;;;2.63;1.38;;;23.20;99.90;;;;;;5057048;28;20542;-78
2023/07/14 09:17:31;;;;;;;1.92;1.45;;;23.30;99.90;;;;;;5073067;28;20168;-78
2023/07/14 09:20:24;;;;;;;2.97;1.50;;;23.70;99.90;;;;;;5094480;28;20160;-78
2023/07/14 09:23:10;;;;;;;4.70;1.70;;;24.10;99.90;;;;;;5095028;28;20192;-78
2023/07/14 09:25:50;;;;;;;2.35;1.27;;;24.20;99.90;;;;;;5076972;28;20214;-78
2023/07/14 09:28:20;;;;;;;2.13;1.50;;;24.40;99.90;;;;;;5076779;28;20224;-79
2023/07/14 09:30:49;;;;;;;2.38;1.30;;;24.30;99.90;;;;;;5076290;28;20168;-78
2023/07/14 09:33:18;;;;;;;2.78;1.42;;;24.40;99.90;;;;;;5076615;28;20227;-78
2023/07/14 09:35:45;;;;;;;3.72;1.50;;;24.20;99.90;;;;;;5094476;28;20681;-78
2023/07/14 09:38:26;;;;;;;4.18;1.45;;;24.00;99.90;;;;;;5094782;28;20187;-78
2023/07/14 09:41:03;;;;;;;2.70;1.50;;;24.10;99.90;;;;;;5094218;28;20172;-78
2023/07/14 09:43:29;;;;;;;2.38;1.50;;;24.50;99.90;;;;;;5076531;28;20192;-77
2023/07/14 09:45:55;;;;;;;3.50;1.33;;;24.80;99.90;;;;;;5076253;28;20200;-78
2023/07/14 09:48:26;;;;;;;2.47;1.50;;;24.80;99.90;;;;;;5094710;28;20695;-78
2023/07/14 09:50:58;;;;;;;1.70;1.23;;;24.90;99.90;;;;;;5093940;28;20163;-78
2023/07/14 09:53:24;;;;;;;3.50;1.50;;;24.60;99.90;;;;;;5077149;28;20679;-77
2023/07/14 09:55:49;;;;;;;2.35;1.45;;;24.80;99.90;;;;;;5065793;28;20268;-78
2023/07/14 09:58:16;;;;;;;3.80;1.77;;;24.90;99.90;;;;;;5047738;28;20177;-78
2023/07/14 10:00:42;;;;;;;4.57;1.67;;;25.00;99.90;;;;;;5069047;28;20165;-77
2023/07/14 10:03:19;;;;;;;1.55;1.20;;;25.20;99.90;;;;;;5039940;28;20259;-77
2023/07/14 10:05:57;;;;;;;3.00;1.40;;;25.20;99.90;;;;;;5039411;28;20275;-78
2023/07/14 10:08:30;;;;;;;2.38;1.38;;;25.20;99.90;;;;;;5055884;28;20158;-80
2023/07/14 10:10:58;;;;;;;2.45;1.40;;;25.30;99.90;;;;;;5056177;28;20150;-80
2023/07/14 10:13:26;;;;;;;4.38;1.45;;;25.60;99.90;;;;;;5038494;28;20668;-80
2023/07/14 10:16:03;;;;;;;2.35;1.40;;;25.40;99.90;;;;;;5038531;28;20173;-80
2023/07/14 10:18:29;;;;;;;2.15;1.38;;;25.20;99.90;;;;;;5054683;28;20158;-78
2023/07/14 10:21:00;;;;;;;3.33;1.63;;;25.10;99.90;;;;;;5036009;28;20284;-80
2023/07/14 10:23:26;;;;;;;2.65;1.30;;;25.00;99.90;;;;;;5038944;28;20255;-79
2023/07/14 10:25:53;;;;;;;3.20;1.17;;;25.00;99.90;;;;;;5039254;28;20209;-81
2023/07/14 10:28:27;;;;;;;1.98;1.38;;;25.20;99.90;;;;;;5056267;28;20174;-79
2023/07/14 10:31:10;;;;;;;1.63;1.35;;;25.30;99.90;;;;;;5056779;28;20161;-80
2023/07/14 10:34:13;;;;;;;1.98;1.40;;;25.50;99.90;;;;;;5037246;28;20262;-79
2023/07/14 10:36:39;;;;;;;3.38;1.40;;;25.70;99.90;;;;;;5060460;28;20640;-77
2023/07/14 10:39:16;;;;;;;3.13;1.50;;;25.50;99.90;;;;;;5049497;28;20659;-77
2023/07/14 10:41:45;;;;;;;2.63;1.30;;;25.30;99.90;;;;;;5071627;28;20195;-78
2023/07/14 10:44:26;;;;;;;4.18;1.67;;;25.20;99.90;;;;;;5062046;28;20719;-77
2023/07/14 10:46:58;;;;;;;2.97;1.40;;;25.10;99.90;;;;;;5087098;28;20203;-77
2023/07/14 10:49:34;;;;;;;2.83;1.30;;;25.40;99.90;;;;;;5066387;28;20204;-77
2023/07/14 10:52:26;;;;;;;2.58;1.63;;;25.20;99.90;;;;;;5088063;28;20249;-78
2023/07/14 10:55:03;;;;;;;2.17;1.45;;;25.00;99.90;;;;;;5074911;28;20176;-77
2023/07/14 10:57:33;;;;;;;1.88;1.38;;;25.10;99.90;;;;;;5074909;28;20168;-77
2023/07/14 11:00:19;;;;;;;2.17;1.30;;;25.20;99.90;;;;;;5074335;28;20653;-78
2023/07/14 11:02:51;;;;;;;2.60;1.50;;;25.60;99.90;;;;;;5092670;28;20204;-77
2023/07/14 11:05:22;;;;;;;2.63;1.30;;;25.70;99.90;;;;;;5074727;28;20200;-78
2023/07/14 11:07:47;;;;;;;1.70;1.23;;;25.80;99.90;;;;;;5074858;28;20168;-78
2023/07/14 11:10:50;;;;;;;3.67;1.30;;;25.90;99.90;;;;;;5074078;28;20657;-77
2023/07/14 11:13:40;;;;;;;2.13;1.50;;;26.10;99.90;;;;;;5092752;28;20188;-77
2023/07/14 11:16:15;;;;;;;1.85;1.30;;;26.20;99.90;;;;;;5092400;28;20192;-78
2023/07/14 11:19:03;;;;;;;3.58;1.27;;;25.90;99.90;;;;;;5071318;28;20217;-79
2023/07/14 11:21:56;;;;;;;2.50;1.50;;;25.70;99.90;;;;;;5082092;28;20203;-78
2023/07/14 11:24:33;;;;;;;3.33;1.48;;;25.90;99.90;;;;;;5085604;28;20238;-79
2023/07/14 11:27:27;;;;;;;3.28;1.48;;;25.80;99.90;;;;;;5066218;28;20282;-79
2023/07/14 11:30:17;;;;;;;2.17;1.33;;;25.60;99.90;;;;;;5095876;28;20168;-79
2023/07/14 11:33:09;;;;;;;3.38;1.40;;;25.50;99.90;;;;;;5096306;28;20569;-79
2023/07/14 11:35:39;;;;;;;1.40;1.25;;;25.40;99.90;;;;;;5096174;28;20187;-79
2023/07/14 11:38:29;;;;;;;2.78;1.40;;;25.80;99.90;;;;;;5074320;28;20212;-78
2023/07/14 11:40:55;;;;;;;2.03;1.40;;;26.00;99.90;;;;;;5065667;28;20165;-78
2023/07/14 11:43:24;;;;;;;4.95;1.48;;;25.90;99.90;;;;;;5094214;28;20248;-79
2023/07/14 11:46:18;;;;;;;2.25;1.45;;;26.20;99.90;;;;;;5096139;28;20206;-78
2023/07/14 11:49:03;;;;;;;3.38;1.50;;;26.30;99.90;;;;;;5074995;28;20177;-79
2023/07/14 11:52:19;;;;;;;2.10;1.52;;;26.20;99.90;;;;;;5095460;28;20224;-79
2023/07/14 11:54:59;;;;;;;1.60;1.40;;;26.00;99.90;;;;;;4977780;28;20259;-79
2023/07/14 11:57:28;;;;;;;4.25;1.50;;;25.80;99.90;;;;;;5078031;28;20275;-78
2023/07/14 12:00:17;;;;;;;2.85;1.50;;;25.70;99.90;;;;;;5092584;28;20171;-80
2023/07/14 12:03:26;;;;;;;2.72;1.55;;;25.60;99.90;;;;;;5101998;22;20312;-82
2023/07/14 12:06:14;;;;;;;2.47;1.40;;;25.30;99.90;;;;;;5078173;28;20192;-86
2023/07/14 12:08:41;;;;;;;3.65;1.50;;;25.30;99.90;;;;;;5079814;28;20187;-81
2023/07/14 12:11:25;;;;;;;2.83;1.50;;;25.20;99.90;;;;;;5078885;28;20183;-81
2023/07/14 12:13:51;;;;;;;3.03;1.60;;;25.20;99.90;;;;;;5080410;28;20199;-83
2023/07/14 12:16:25;;;;;;;3.03;1.60;;;25.30;99.90;;;;;;5080156;28;20174;-83
2023/07/14 12:18:57;;;;;;;3.33;1.40;;;25.50;99.90;;;;;;5080161;28;20241;-82
2023/07/14 12:21:26;;;;;;;3.15;1.33;;;25.70;99.90;;;;;;5079391;28;20267;-82
2023/07/14 12:23:52;;;;;;;2.03;1.50;;;25.70;99.90;;;;;;5078993;28;20201;-82
2023/07/14 12:26:41;;;;;;;2.45;1.45;;;25.70;99.90;;;;;;5080275;28;20246;-81
2023/07/14 12:29:12;;;;;;;2.55;1.52;;;25.70;99.90;;;;;;5069755;28;20181;-81
2023/07/14 12:31:39;;;;;;;1.73;1.45;;;25.80;99.90;;;;;;5077918;28;20252;-82
2023/07/14 12:34:05;;;;;;;3.05;1.52;;;25.90;99.90;;;;;;5079062;28;20223;-81
2023/07/14 12:36:31;;;;;;;3.55;1.50;;;25.90;99.90;;;;;;5079134;28;20177;-82
2023/07/14 12:38:57;;;;;;;2.42;1.70;;;25.90;99.90;;;;;;5078154;28;20174;-81
2023/07/14 12:41:24;;;;;;;1.48;1.30;;;25.90;99.90;;;;;;5078045;28;20173;-81
2023/07/14 12:43:55;;;;;;;1.83;1.30;;;25.90;99.90;;;;;;5078386;28;20224;-82
2023/07/14 12:46:24;;;;;;;1.90;1.60;;;25.80;99.90;;;;;;5078399;28;20204;-82
2023/07/14 12:48:51;;;;;;;2.03;1.45;;;25.90;99.90;;;;;;5078466;28;20173;-81
2023/07/14 12:51:21;;;;;;;2.28;1.70;;;25.80;99.90;;;;;;5079078;28;20176;-81
2023/07/14 12:54:01;;;;;;;2.35;1.50;;;25.90;99.90;;;;;;5077722;28;20579;-82
2023/07/14 12:56:32;;;;;;;2.58;1.70;;;25.90;99.90;;;;;;5079257;28;20172;-82
2023/07/14 12:59:02;;;;;;;2.92;1.60;;;26.20;99.90;;;;;;5079169;28;20644;-82
2023/07/14 13:01:28;;;;;;;4.47;1.70;;;26.50;99.90;;;;;;5077110;28;20173;-82
2023/07/14 13:03:54;;;;;;;1.60;1.42;;;26.60;99.80;;;;;;5041557;28;1060011;-82
2023/07/14 13:06:23;;;;;;;3.55;1.40;;;27.10;97.70;;;;;;5078525;28;20201;-82